Time;durP1;ratioP1;P1;durP2;ratioP2;P2;SDS_P1;SDS_P2;PMS_P1;PMS_P2;Temp;Humidity;BMP_temperature;BMP_pressure;BME280_temperature;BME280_humidity;BME280_pressure;Samples;Min_cycle;Max_cycle;Signal;HPM_P1;HPM_P2
2024/03/05 00:00:29;;;;;;;64.70;31.50;;;;;;;8.63;51.65;100300.23;108086;1254;60228;-67
2024/03/05 00:02:56;;;;;;;68.90;32.60;;;;;;;8.66;51.49;100295.76;108017;1254;72707;-67
2024/03/05 00:05:23;;;;;;;66.20;32.70;;;;;;;8.57;51.80;100294.79;108046;1256;70412;-67
2024/03/05 00:07:50;;;;;;;66.80;32.10;;;;;;;8.54;51.76;100293.45;107987;1253;72469;-67
2024/03/05 00:10:17;;;;;;;67.50;32.30;;;;;;;8.51;51.81;100294.05;108105;1254;61107;-66
2024/03/05 00:12:45;;;;;;;67.90;32.20;;;;;;;8.42;52.08;100293.39;108022;1253;60160;-67
2024/03/05 00:15:12;;;;;;;69.30;31.90;;;;;;;8.47;52.07;100290.83;108039;1253;71614;-67
2024/03/05 00:17:38;;;;;;;68.30;32.50;;;;;;;8.42;52.14;100289.38;108047;1254;70417;-67
2024/03/05 00:20:13;;;;;;;72.00;33.50;;;;;;;8.40;52.28;100287.85;108096;1253;72695;-67
2024/03/05 00:22:41;;;;;;;62.80;32.00;;;;;;;8.37;52.30;100280.56;108077;1253;59984;-67
2024/03/05 00:25:08;;;;;;;71.50;32.10;;;;;;;8.36;52.40;100282.51;108147;1253;60359;-66
2024/03/05 00:27:35;;;;;;;70.10;34.90;;;;;;;8.33;52.55;100278.55;108085;1254;72937;-66
2024/03/05 00:30:04;;;;;;;77.20;34.10;;;;;;;8.39;52.63;100276.67;108102;1253;69503;-66
2024/03/05 00:32:32;;;;;;;74.50;35.40;;;;;;;8.40;52.41;100273.68;108158;1257;72559;-66
2024/03/05 00:34:59;;;;;;;70.40;35.20;;;;;;;8.44;52.45;100273.26;108099;1253;60457;-66
2024/03/05 00:37:26;;;;;;;70.70;35.00;;;;;;;8.51;52.19;100272.52;108105;1253;60526;-66
2024/03/05 00:39:52;;;;;;;76.40;34.40;;;;;;;8.48;52.17;100272.98;108104;1253;74395;-66
2024/03/05 00:42:19;;;;;;;77.40;35.80;;;;;;;8.50;52.07;100273.27;108083;1253;70726;-65
2024/03/05 00:44:46;;;;;;;68.10;31.40;;;;;;;8.45;52.28;100277.27;108097;1253;73181;-66
2024/03/05 00:47:13;;;;;;;74.30;35.50;;;;;;;8.39;52.52;100283.16;108092;1253;61207;-66
2024/03/05 00:49:40;;;;;;;71.10;34.70;;;;;;;8.33;52.52;100280.83;108058;1253;60207;-67
2024/03/05 00:52:07;;;;;;;74.10;35.80;;;;;;;8.33;52.65;100279.09;108039;1253;73709;-66
2024/03/05 00:54:34;;;;;;;74.50;34.80;;;;;;;8.35;52.59;100283.25;107921;1254;70020;-66
2024/03/05 00:57:01;;;;;;;66.50;34.20;;;;;;;8.31;52.69;100286.31;107966;1254;73001;-66
2024/03/05 00:59:27;;;;;;;70.10;34.60;;;;;;;8.33;52.61;100285.55;108060;1253;60185;-67
2024/03/05 01:01:55;;;;;;;71.60;34.40;;;;;;;8.36;52.56;100282.67;107890;1255;60464;-66
2024/03/05 01:04:22;;;;;;;68.90;35.80;;;;;;;8.46;52.27;100282.29;108007;1254;73763;-66
2024/03/05 01:06:49;;;;;;;63.50;33.30;;;;;;;8.42;52.46;100278.55;107940;1260;70701;-66
2024/03/05 01:09:18;;;;;;;69.20;33.70;;;;;;;8.44;52.54;100282.15;108025;1253;73272;-67
2024/03/05 01:11:45;;;;;;;67.60;35.30;;;;;;;8.47;52.37;100279.81;108071;1253;60434;-67
2024/03/05 01:14:11;;;;;;;67.20;34.50;;;;;;;8.50;52.27;100279.56;108113;1253;60314;-65
2024/03/05 01:16:41;;;;;;;72.30;35.10;;;;;;;8.38;52.40;100283.16;108151;1253;74537;-66
2024/03/05 01:19:08;;;;;;;79.00;35.50;;;;;;;8.41;52.43;100285.02;108082;1253;70388;-66
2024/03/05 01:21:35;;;;;;;68.70;34.00;;;;;;;8.33;52.41;100283.98;108045;1257;73436;-67
2024/03/05 01:24:02;;;;;;;77.10;37.00;;;;;;;8.25;52.61;100283.30;108062;1257;61187;-66
2024/03/05 01:26:29;;;;;;;72.50;34.30;;;;;;;8.22;52.70;100284.27;108016;1254;60412;-65
2024/03/05 01:28:55;;;;;;;74.90;35.70;;;;;;;8.24;52.66;100282.29;107982;1254;73816;-67
2024/03/05 01:31:22;;;;;;;70.10;34.90;;;;;;;7.92;52.98;100283.77;108024;1253;70948;-67
2024/03/05 01:33:49;;;;;;;67.60;33.20;;;;;;;7.82;53.40;100280.86;108088;1254;72480;-67
2024/03/05 01:36:19;;;;;;;68.30;34.70;;;;;;;7.88;53.41;100281.41;108042;1253;60388;-66
2024/03/05 01:38:46;;;;;;;71.10;35.00;;;;;;;7.76;53.68;100281.69;108122;1253;60326;-65
2024/03/05 01:41:13;;;;;;;66.40;32.90;;;;;;;7.78;53.70;100281.11;108084;1253;72813;-65
2024/03/05 01:43:40;;;;;;;70.90;33.80;;;;;;;7.99;53.08;100284.83;108091;1254;69158;-67
2024/03/05 01:46:07;;;;;;;67.10;33.80;;;;;;;7.37;54.31;100288.14;108074;1256;73134;-66
2024/03/05 01:48:33;;;;;;;76.70;36.20;;;;;;;7.18;54.94;100284.86;107809;1253;60917;-65
2024/03/05 01:51:01;;;;;;;71.80;34.50;;;;;;;7.41;54.34;100285.79;107977;1253;60346;-66
2024/03/05 01:53:28;;;;;;;65.00;32.00;;;;;;;7.60;53.95;100283.27;107957;1253;74156;-67
2024/03/05 01:55:54;;;;;;;71.40;36.30;;;;;;;7.64;53.74;100286.67;108096;1253;70665;-64
2024/03/05 01:58:21;;;;;;;73.50;34.80;;;;;;;7.55;54.08;100288.27;107972;1253;71216;-66
2024/03/05 02:00:48;;;;;;;76.40;35.00;;;;;;;7.49;54.28;100288.08;108023;1253;61138;-67
2024/03/05 02:03:17;;;;;;;73.10;34.50;;;;;;;7.47;54.32;100291.96;108117;1253;60334;-66
2024/03/05 02:05:43;;;;;;;70.70;34.60;;;;;;;7.49;54.19;100290.85;108104;1253;73150;-66
2024/03/05 02:08:11;;;;;;;75.10;35.80;;;;;;;7.49;54.17;100290.50;107832;1253;70555;-65
2024/03/05 02:10:42;;;;;;;70.60;35.20;;;;;;;7.47;54.36;100289.50;108083;1254;72470;-67
2024/03/05 02:13:10;;;;;;;71.80;36.10;;;;;;;7.46;54.21;100289.02;108073;1253;61045;-66
2024/03/05 02:15:37;;;;;;;75.20;35.20;;;;;;;7.49;54.38;100288.92;108065;1253;60342;-67
2024/03/05 02:18:05;;;;;;;72.40;36.60;;;;;;;7.48;54.33;100286.34;108168;1253;73594;-66
2024/03/05 02:20:33;;;;;;;78.10;36.20;;;;;;;7.44;54.49;100287.67;108168;1253;70163;-66
2024/03/05 02:23:02;;;;;;;75.50;36.20;;;;;;;7.49;54.13;100287.89;108126;1253;72012;-68
2024/03/05 02:25:31;;;;;;;73.70;36.40;;;;;;;7.47;54.21;100286.87;108105;1253;61116;-67
2024/03/05 02:28:01;;;;;;;71.30;36.50;;;;;;;7.37;54.50;100284.84;108131;1253;60361;-66
2024/03/05 02:30:29;;;;;;;78.40;36.70;;;;;;;7.45;54.36;100286.59;108071;1257;74016;-66
2024/03/05 02:32:57;;;;;;;73.00;37.00;;;;;;;7.51;54.23;100287.84;108061;1254;70764;-68
2024/03/05 02:35:23;;;;;;;69.80;36.60;;;;;;;7.56;54.08;100287.39;108059;1253;72980;-67
2024/03/05 02:37:50;;;;;;;71.00;34.80;;;;;;;7.51;54.15;100293.26;108069;1254;60994;-66
2024/03/05 02:40:16;;;;;;;77.70;37.40;;;;;;;7.56;54.19;100292.10;108124;1253;60476;-66
2024/03/05 02:42:44;;;;;;;74.50;37.20;;;;;;;7.58;54.18;100293.64;108139;1253;73836;-66
2024/03/05 02:45:11;;;;;;;73.00;35.40;;;;;;;7.60;53.97;100294.81;108083;1253;69145;-67
2024/03/05 02:47:41;;;;;;;72.90;36.20;;;;;;;7.62;53.98;100297.20;107935;1253;73311;-67
2024/03/05 02:50:09;;;;;;;73.00;35.80;;;;;;;7.40;54.35;100296.10;108092;1253;60421;-67
2024/03/05 02:52:39;;;;;;;78.40;38.20;;;;;;;6.90;55.55;100299.20;108163;1253;60454;-67
2024/03/05 02:55:09;;;;;;;73.20;37.80;;;;;;;6.98;55.61;100295.73;108098;1253;74279;-66
2024/03/05 02:57:43;;;;;;;68.90;33.80;;;;;;;7.04;55.30;100296.33;108106;1253;70771;-66
2024/03/05 03:00:20;;;;;;;70.80;35.50;;;;;;;7.30;55.11;100295.63;108085;1253;72646;-67
2024/03/05 03:02:50;;;;;;;76.20;35.70;;;;;;;7.57;54.15;100291.37;108026;1253;61007;-66
2024/03/05 03:05:18;;;;;;;93.70;35.60;;;;;;;7.60;54.01;100287.29;108057;1253;60364;-67
2024/03/05 03:07:44;;;;;;;67.60;33.30;;;;;;;7.65;53.87;100288.23;108127;1257;72786;-67
2024/03/05 03:10:11;;;;;;;73.10;35.40;;;;;;;7.63;54.09;100285.13;108021;1253;70410;-65
2024/03/05 03:12:41;;;;;;;75.40;35.20;;;;;;;7.67;53.72;100279.45;108032;1253;72765;-67
2024/03/05 03:15:08;;;;;;;64.90;35.10;;;;;;;7.83;53.30;100273.84;108022;1253;60861;-66
2024/03/05 03:17:37;;;;;;;74.90;36.70;;;;;;;7.78;53.44;100270.61;108114;1253;60508;-65
2024/03/05 03:20:07;;;;;;;73.70;35.70;;;;;;;7.80;53.33;100274.44;108107;1253;73831;-66
2024/03/05 03:22:35;;;;;;;72.60;34.00;;;;;;;7.86;53.18;100278.84;108039;1253;70746;-66
2024/03/05 03:25:02;;;;;;;65.20;32.70;;;;;;;7.86;53.23;100284.27;108185;1253;72306;-67
2024/03/05 03:27:29;;;;;;;71.50;34.60;;;;;;;7.86;53.12;100284.43;108100;1253;61215;-68
2024/03/05 03:29:57;;;;;;;69.40;33.90;;;;;;;7.84;53.00;100287.81;108180;1253;60364;-67
2024/03/05 03:32:24;;;;;;;70.10;34.50;;;;;;;7.82;52.94;100285.22;108034;1253;73675;-66
2024/03/05 03:34:51;;;;;;;76.40;35.40;;;;;;;7.85;52.87;100289.52;108022;1254;70930;-67
2024/03/05 03:37:18;;;;;;;64.60;32.70;;;;;;;7.89;52.80;100293.27;107937;1253;71572;-67
2024/03/05 03:39:46;;;;;;;77.40;35.50;;;;;;;7.81;52.86;100295.73;107990;1253;61071;-67
2024/03/05 03:42:14;;;;;;;72.70;34.90;;;;;;;7.85;52.73;100296.35;108014;1253;60016;-66
2024/03/05 03:44:40;;;;;;;72.60;34.70;;;;;;;7.79;52.82;100298.23;108071;1253;73738;-67
2024/03/05 03:47:07;;;;;;;76.80;35.70;;;;;;;7.77;52.89;100297.74;108033;1253;70792;-67
2024/03/05 03:49:35;;;;;;;67.90;35.20;;;;;;;7.68;52.85;100297.77;107988;1253;73046;-67
2024/03/05 03:52:03;;;;;;;74.50;35.30;;;;;;;7.56;53.15;100295.25;107976;1253;61125;-67
2024/03/05 03:54:30;;;;;;;67.10;33.70;;;;;;;7.53;53.02;100298.27;108046;1253;60377;-66
2024/03/05 03:56:57;;;;;;;69.90;32.90;;;;;;;7.53;53.04;100296.54;108030;1253;74362;-65
2024/03/05 03:59:23;;;;;;;72.80;36.40;;;;;;;7.42;53.30;100304.13;108057;1253;70328;-67
2024/03/05 04:01:51;;;;;;;80.40;37.00;;;;;;;7.41;53.21;100302.73;108009;1253;72508;-65
2024/03/05 04:04:18;;;;;;;73.30;37.30;;;;;;;7.36;53.15;100302.31;108092;1253;60199;-67
2024/03/05 04:06:47;;;;;;;74.00;35.10;;;;;;;7.26;52.99;100301.64;107943;1253;60802;-66
2024/03/05 04:09:14;;;;;;;80.90;41.30;;;;;;;7.30;52.68;100301.73;108166;1257;74367;-66
2024/03/05 04:11:41;;;;;;;90.10;43.30;;;;;;;7.24;52.65;100306.23;107991;1253;70508;-65
2024/03/05 04:14:11;;;;;;;76.00;34.90;;;;;;;7.13;52.69;100304.54;108005;1253;72935;-66
2024/03/05 04:16:39;;;;;;;106.20;44.50;;;;;;;7.12;52.95;100300.70;108107;1253;60328;-66
2024/03/05 04:19:09;;;;;;;103.90;47.00;;;;;;;7.15;52.83;100300.99;108115;1253;60318;-67
2024/03/05 04:21:42;;;;;;;98.80;44.50;;;;;;;7.09;53.08;100299.73;108048;1253;74014;-65
2024/03/05 04:24:20;;;;;;;90.70;41.20;;;;;;;6.98;53.64;100298.20;108076;1253;69202;-66
2024/03/05 04:26:48;;;;;;;85.00;40.10;;;;;;;7.09;53.38;100299.91;108069;1254;71207;-67
2024/03/05 04:29:19;;;;;;;75.00;37.60;;;;;;;7.18;52.95;100299.36;108019;1253;61116;-66
2024/03/05 04:32:05;;;;;;;85.80;39.90;;;;;;;7.19;53.21;100302.67;108051;1253;60444;-67
2024/03/05 04:34:32;;;;;;;82.60;39.90;;;;;;;7.19;53.28;100305.63;108117;1253;73867;-64
2024/03/05 04:36:58;;;;;;;91.60;39.80;;;;;;;7.22;53.44;100298.94;108076;1253;71004;-66
2024/03/05 04:39:25;;;;;;;83.80;39.60;;;;;;;7.25;53.54;100295.55;107918;1253;72607;-67
2024/03/05 04:41:53;;;;;;;86.50;40.20;;;;;;;7.27;53.72;100292.89;107978;1253;60493;-66
2024/03/05 04:44:19;;;;;;;82.60;39.30;;;;;;;7.34;53.88;100290.66;108099;1253;60278;-65
2024/03/05 04:46:46;;;;;;;88.00;40.90;;;;;;;7.38;53.68;100291.77;108024;1253;74249;-66
2024/03/05 04:49:13;;;;;;;82.60;38.30;;;;;;;7.45;53.65;100293.23;108043;1253;70855;-66
2024/03/05 04:51:40;;;;;;;80.30;39.40;;;;;;;7.46;53.70;100290.77;107988;1254;73061;-67
2024/03/05 04:54:06;;;;;;;82.00;37.30;;;;;;;7.50;53.70;100290.48;107919;1253;61301;-66
2024/03/05 04:56:34;;;;;;;75.10;37.10;;;;;;;7.55;53.50;100293.19;108045;1254;60289;-64
2024/03/05 04:59:00;;;;;;;74.20;36.10;;;;;;;7.67;53.29;100292.02;108135;1253;73688;-67
2024/03/05 05:01:27;;;;;;;75.50;36.30;;;;;;;7.80;52.80;100291.05;108069;1253;70590;-66
2024/03/05 05:03:54;;;;;;;88.80;38.10;;;;;;;7.73;53.03;100290.66;108044;1254;71866;-66
2024/03/05 05:06:21;;;;;;;77.40;37.30;;;;;;;7.74;53.05;100295.36;108106;1253;61109;-64
2024/03/05 05:08:49;;;;;;;78.00;35.30;;;;;;;7.77;52.97;100291.80;108068;1253;60339;-65
2024/03/05 05:11:15;;;;;;;73.10;35.40;;;;;;;7.88;52.83;100295.92;108130;1253;72662;-67
2024/03/05 05:13:42;;;;;;;68.10;35.20;;;;;;;7.97;52.54;100297.63;108086;1253;70566;-67
2024/03/05 05:16:12;;;;;;;63.00;32.30;;;;;;;7.94;52.41;100301.37;108090;1253;72688;-67
2024/03/05 05:18:40;;;;;;;71.40;36.60;;;;;;;8.10;52.16;100303.80;108055;1253;60431;-65
2024/03/05 05:21:07;;;;;;;77.90;35.60;;;;;;;8.11;52.19;100308.13;108073;1253;60332;-66
2024/03/05 05:23:34;;;;;;;72.90;36.60;;;;;;;8.24;51.90;100314.13;107997;1253;72737;-66
2024/03/05 05:26:02;;;;;;;75.40;36.70;;;;;;;8.23;52.02;100317.64;108117;1253;69984;-67
2024/03/05 05:28:28;;;;;;;69.60;37.30;;;;;;;8.34;51.91;100315.27;108048;1253;72657;-67
2024/03/05 05:30:55;;;;;;;87.30;39.80;;;;;;;8.38;51.75;100311.33;108011;1257;60941;-67
2024/03/05 05:33:32;;;;;;;67.30;35.20;;;;;;;8.38;51.74;100311.17;108008;1253;60515;-67
2024/03/05 05:35:59;;;;;;;68.90;34.80;;;;;;;8.36;51.47;100310.86;108022;1253;72684;-66
2024/03/05 05:38:25;;;;;;;65.50;34.30;;;;;;;8.42;51.23;100313.01;108069;1253;70503;-66
2024/03/05 05:40:52;;;;;;;68.90;34.50;;;;;;;8.56;50.82;100308.46;108089;1254;72740;-66
2024/03/05 05:43:19;;;;;;;68.30;34.40;;;;;;;8.72;50.67;100304.88;108131;1253;61107;-67
2024/03/05 05:45:48;;;;;;;65.40;32.10;;;;;;;8.92;50.12;100306.98;108107;1253;60428;-67
2024/03/05 05:48:23;;;;;;;75.30;34.10;;;;;;;9.29;49.92;100312.07;107954;1253;74067;-66
2024/03/05 05:50:55;;;;;;;54.70;30.60;;;;;;;9.79;49.45;100317.92;108043;1253;70993;-67
2024/03/05 05:53:21;;;;;;;62.80;31.20;;;;;;;10.26;48.42;100316.80;108075;1253;71103;-67
2024/03/05 05:55:48;;;;;;;66.70;31.90;;;;;;;10.78;46.57;100317.35;107962;1253;60855;-65
2024/03/05 05:58:15;;;;;;;61.40;31.30;;;;;;;11.18;45.59;100315.57;108073;1253;60328;-66
2024/03/05 06:00:41;;;;;;;61.50;29.90;;;;;;;11.70;44.58;100312.41;108058;1257;74235;-67
2024/03/05 06:03:08;;;;;;;63.10;31.00;;;;;;;12.13;43.70;100306.33;108006;1253;70480;-68
2024/03/05 06:05:37;;;;;;;64.30;29.60;;;;;;;12.48;42.36;100307.02;107980;1253;72697;-67
2024/03/05 06:08:08;;;;;;;54.10;29.30;;;;;;;12.94;41.77;100308.56;108040;1253;61363;-66
2024/03/05 06:10:37;;;;;;;63.00;29.40;;;;;;;13.33;40.61;100307.90;108069;1253;60310;-66
2024/03/05 06:13:04;;;;;;;59.00;29.80;;;;;;;13.62;39.70;100308.70;107979;1253;73711;-66
2024/03/05 06:15:30;;;;;;;52.20;26.50;;;;;;;13.85;38.88;100304.08;108080;1253;70495;-67
2024/03/05 06:17:59;;;;;;;49.20;25.00;;;;;;;14.09;38.31;100308.91;108094;1253;72513;-67
2024/03/05 06:20:28;;;;;;;47.10;25.90;;;;;;;14.33;37.70;100303.33;108053;1253;61174;-67
2024/03/05 06:23:00;;;;;;;50.50;24.40;;;;;;;14.64;36.90;100304.48;108067;1253;60369;-67
2024/03/05 06:25:27;;;;;;;46.70;24.80;;;;;;;14.74;36.24;100301.66;108113;1254;72841;-68
2024/03/05 06:27:55;;;;;;;51.50;25.40;;;;;;;15.02;36.32;100298.63;108062;1253;70145;-67
2024/03/05 06:30:22;;;;;;;46.70;24.50;;;;;;;15.02;35.62;100296.49;107997;1253;72538;-69
2024/03/05 06:32:49;;;;;;;42.30;24.80;;;;;;;15.24;35.45;100300.45;108005;1253;60190;-68
2024/03/05 06:35:22;;;;;;;44.80;23.90;;;;;;;15.42;34.99;100300.36;107973;1253;60440;-68
2024/03/05 06:37:49;;;;;;;44.50;23.80;;;;;;;15.41;34.69;100302.35;108011;1253;73845;-68
2024/03/05 06:40:19;;;;;;;69.30;26.40;;;;;;;15.58;35.02;100302.46;108042;1253;70453;-67
2024/03/05 06:43:02;;;;;;;43.60;25.30;;;;;;;15.92;34.88;100302.60;107993;1253;71782;-67
2024/03/05 06:45:30;;;;;;;56.50;25.60;;;;;;;16.23;33.75;100304.19;107996;1253;60208;-68
2024/03/05 06:47:57;;;;;;;42.20;23.70;;;;;;;16.42;32.94;100304.01;108011;1253;60449;-69
2024/03/05 06:50:41;;;;;;;43.90;22.70;;;;;;;16.48;33.26;100300.96;108076;1253;73919;-67
2024/03/05 06:58:44;;;;;;;40.50;22.30;;;;;;;16.89;32.17;100295.67;107913;1254;60988;-67
2024/03/05 07:01:12;;;;;;;43.70;23.30;;;;;;;16.84;31.62;100292.98;108021;1253;60387;-68
2024/03/05 07:03:39;;;;;;;42.30;23.50;;;;;;;17.10;31.65;100293.52;108041;1253;73912;-68
2024/03/05 07:06:09;;;;;;;39.10;23.60;;;;;;;17.18;31.60;100294.13;108047;1257;70279;-68
2024/03/05 07:08:40;;;;;;;41.40;23.80;;;;;;;17.27;31.52;100292.31;108070;1253;71818;-68
2024/03/05 07:11:09;;;;;;;46.80;23.60;;;;;;;17.29;31.60;100290.92;107910;1255;59401;-68
2024/03/05 07:13:37;;;;;;;45.70;25.50;;;;;;;17.31;31.28;100294.86;108039;1253;60434;-67
2024/03/05 07:16:07;;;;;;;51.10;27.30;;;;;;;17.51;31.28;100290.68;108003;1254;75024;-67
2024/03/05 07:18:36;;;;;;;38.70;24.00;;;;;;;17.63;30.98;100287.58;108041;1253;70069;-68
2024/03/05 07:21:09;;;;;;;48.80;25.40;;;;;;;17.66;30.66;100288.45;108065;1254;73669;-68
2024/03/05 07:23:36;;;;;;;41.20;24.80;;;;;;;17.98;30.57;100283.94;108042;1253;61810;-69
2024/03/05 07:26:03;;;;;;;44.20;24.20;;;;;;;18.17;30.25;100287.84;107917;1254;60450;-69
2024/03/05 07:28:33;;;;;;;40.60;24.40;;;;;;;18.20;30.29;100290.46;107995;1253;73618;-69
2024/03/05 07:31:01;;;;;;;37.70;21.70;;;;;;;18.41;30.25;100292.83;108036;1253;70252;-69
2024/03/05 07:33:29;;;;;;;44.30;22.70;;;;;;;18.49;29.90;100294.02;107982;1254;72681;-67
2024/03/05 07:35:56;;;;;;;44.10;23.90;;;;;;;18.98;29.76;100293.42;107942;1254;60387;-68
2024/03/05 07:38:23;;;;;;;48.20;22.90;;;;;;;19.23;29.12;100293.09;107922;1253;60399;-68
2024/03/05 07:40:51;;;;;;;47.40;23.80;;;;;;;19.32;29.26;100292.63;108060;1257;72453;-68
2024/03/05 07:43:17;;;;;;;69.20;26.50;;;;;;;19.73;28.96;100292.36;108038;1253;68809;-68
2024/03/05 07:45:44;;;;;;;79.30;27.00;;;;;;;20.05;28.02;100284.86;107960;1253;72607;-69
2024/03/05 07:48:15;;;;;;;69.10;25.80;;;;;;;19.93;28.04;100292.19;107907;1253;60005;-67
2024/03/05 07:50:42;;;;;;;75.90;25.30;;;;;;;19.88;28.36;100293.04;108078;1253;60541;-69
2024/03/05 07:53:09;;;;;;;71.10;24.80;;;;;;;20.15;28.43;100289.81;108069;1253;71396;-68
2024/03/05 07:55:39;;;;;;;46.40;23.50;;;;;;;20.63;27.89;100289.24;108043;1253;70574;-69
2024/03/05 07:58:13;;;;;;;59.10;25.60;;;;;;;21.12;27.27;100292.06;108082;1253;72693;-66
2024/03/05 08:00:41;;;;;;;56.20;25.80;;;;;;;21.51;26.86;100291.20;108095;1253;60475;-68
2024/03/05 08:03:10;;;;;;;65.40;25.70;;;;;;;21.63;26.48;100283.46;108040;1253;60505;-68
2024/03/05 08:05:41;;;;;;;74.70;26.60;;;;;;;21.80;26.51;100284.19;108058;1253;74863;-68
2024/03/05 08:08:09;;;;;;;68.20;25.10;;;;;;;22.06;26.04;100284.76;108035;1256;70271;-67
2024/03/05 08:10:36;;;;;;;63.30;25.00;;;;;;;22.33;25.90;100282.17;108005;1253;73817;-69
2024/03/05 08:13:03;;;;;;;65.60;25.50;;;;;;;22.58;25.64;100279.55;108049;1253;60454;-69
2024/03/05 08:15:30;;;;;;;65.70;24.90;;;;;;;22.80;25.37;100277.63;108045;1253;60348;-68
2024/03/05 08:17:57;;;;;;;45.20;21.50;;;;;;;22.89;24.79;100275.26;107997;1253;73688;-68
2024/03/05 08:20:26;;;;;;;43.80;21.80;;;;;;;23.02;24.74;100273.84;108033;1253;70796;-70
2024/03/05 08:22:54;;;;;;;42.60;22.80;;;;;;;23.17;24.59;100276.42;108013;1253;72653;-68
2024/03/05 08:25:21;;;;;;;40.70;21.20;;;;;;;23.04;24.37;100279.17;108058;1253;60309;-69
2024/03/05 08:27:58;;;;;;;38.90;22.70;;;;;;;22.94;24.39;100278.79;108050;1254;60292;-70
2024/03/05 08:30:29;;;;;;;41.70;22.00;;;;;;;22.73;24.34;100278.08;108073;1253;74019;-69
2024/03/05 08:32:56;;;;;;;35.70;20.90;;;;;;;22.31;24.82;100274.85;108035;1253;70522;-67
2024/03/05 08:35:25;;;;;;;31.70;19.60;;;;;;;22.27;25.00;100270.66;108064;1253;72503;-68
2024/03/05 08:37:52;;;;;;;40.00;19.40;;;;;;;22.43;24.70;100270.42;108003;1253;60416;-68
2024/03/05 08:43:30;;;;;;;31.90;19.60;;;;;;;21.48;26.03;100272.30;104696;1292;611612;-66
2024/03/05 08:45:59;;;;;;;34.40;19.30;;;;;;;22.77;24.23;100270.27;107187;1267;60326;-70
2024/03/05 08:48:28;;;;;;;34.40;19.80;;;;;;;22.65;24.31;100268.91;107224;1266;60340;-68
2024/03/05 08:50:55;;;;;;;32.70;19.00;;;;;;;22.60;24.49;100266.45;107225;1266;71379;-69
2024/03/05 08:53:22;;;;;;;28.60;18.40;;;;;;;22.87;24.74;100269.17;107233;1266;70010;-69
2024/03/05 08:55:52;;;;;;;33.10;19.70;;;;;;;23.20;24.20;100265.80;107127;1264;133668;-70
2024/03/05 08:58:18;;;;;;;39.40;19.80;;;;;;;22.95;23.60;100269.90;107394;1263;61029;-69
2024/03/05 09:00:45;;;;;;;34.20;19.20;;;;;;;22.87;23.85;100268.27;107247;1263;60095;-70
2024/03/05 09:03:12;;;;;;;35.90;21.10;;;;;;;23.02;24.05;100266.46;107387;1263;73590;-69
2024/03/05 09:05:40;;;;;;;32.00;18.30;;;;;;;23.15;24.03;100267.81;107410;1263;69870;-68
2024/03/05 09:08:12;;;;;;;36.70;18.70;;;;;;;23.45;23.69;100264.45;107383;1263;72476;-68
2024/03/05 09:10:39;;;;;;;37.30;18.90;;;;;;;23.49;23.45;100263.61;107380;1263;61475;-70
2024/03/05 09:13:06;;;;;;;30.30;19.90;;;;;;;23.61;23.49;100263.96;107291;1269;60255;-69
2024/03/05 09:15:35;;;;;;;37.50;19.60;;;;;;;23.54;23.36;100259.77;107334;1264;71939;-69
2024/03/05 09:18:09;;;;;;;33.10;19.00;;;;;;;23.04;23.57;100261.63;107357;1264;69329;-69
2024/03/05 09:20:36;;;;;;;33.90;19.20;;;;;;;22.80;23.97;100260.67;108207;1254;71536;-69
2024/03/05 09:23:04;;;;;;;39.40;20.20;;;;;;;22.75;24.06;100256.91;108208;1254;59601;-67
2024/03/05 09:25:32;;;;;;;36.30;20.60;;;;;;;22.91;24.02;100250.41;108267;1254;59633;-67
2024/03/05 09:27:58;;;;;;;38.90;20.90;;;;;;;23.01;24.04;100248.34;108250;1254;73134;-69
2024/03/05 09:30:28;;;;;;;36.90;20.40;;;;;;;23.12;23.74;100246.95;108244;1252;69048;-70
2024/03/05 09:32:56;;;;;;;38.10;20.60;;;;;;;22.99;24.05;100245.59;108355;1252;71811;-69
2024/03/05 09:35:24;;;;;;;39.50;19.20;;;;;;;23.19;23.87;100243.65;108235;1253;59554;-69
2024/03/05 09:37:51;;;;;;;29.30;18.40;;;;;;;23.09;23.70;100244.67;108176;1256;59170;-69
2024/03/05 09:40:17;;;;;;;35.60;20.40;;;;;;;22.67;23.92;100246.15;108170;1253;73090;-69
2024/03/05 09:42:46;;;;;;;31.90;19.70;;;;;;;22.62;24.28;100244.80;108053;1253;70432;-70
2024/03/05 09:45:16;;;;;;;33.40;20.30;;;;;;;22.66;24.14;100241.12;108218;1253;72617;-69
2024/03/05 09:47:44;;;;;;;37.20;19.50;;;;;;;22.41;24.47;100240.14;108205;1252;60266;-69
2024/03/05 09:50:12;;;;;;;40.70;20.20;;;;;;;22.49;24.47;100242.54;107991;1252;59563;-69
2024/03/05 09:52:39;;;;;;;39.20;20.30;;;;;;;22.63;24.27;100236.89;108256;1253;73304;-69
2024/03/05 09:55:07;;;;;;;31.00;18.70;;;;;;;23.01;24.18;100235.42;108069;1253;70384;-69
2024/03/05 09:57:34;;;;;;;32.50;15.90;;;;;;;23.16;23.86;100231.95;108130;1254;74187;-70
2024/03/05 10:00:01;;;;;;;40.60;20.20;;;;;;;23.15;23.76;100229.89;108162;1253;61336;-68
2024/03/05 10:02:28;;;;;;;31.80;19.70;;;;;;;23.19;24.12;100228.05;108050;1253;61531;-67
2024/03/05 10:04:58;;;;;;;34.20;19.30;;;;;;;23.48;24.19;100226.96;108057;1253;73099;-69
2024/03/05 10:07:26;;;;;;;35.70;19.80;;;;;;;23.67;23.45;100218.81;108123;1253;71478;-69
2024/03/05 10:10:29;;;;;;;34.20;18.50;;;;;;;23.44;23.75;100225.92;108138;1253;71655;-70
2024/03/05 10:12:56;;;;;;;31.80;18.10;;;;;;;23.12;23.96;100219.56;108172;1253;60380;-68
2024/03/05 10:15:25;;;;;;;42.50;20.40;;;;;;;23.14;24.10;100220.49;108151;1253;59535;-67
2024/03/05 10:17:55;;;;;;;35.10;20.00;;;;;;;23.10;24.13;100217.27;108192;1253;72988;-68
2024/03/05 10:20:26;;;;;;;38.40;21.50;;;;;;;23.16;24.34;100213.85;108243;1253;71661;-68
2024/03/05 10:22:54;;;;;;;38.60;20.50;;;;;;;23.23;24.11;100213.06;108167;1253;72776;-69
2024/03/05 10:25:22;;;;;;;32.20;20.30;;;;;;;23.09;24.07;100208.50;108139;1254;60468;-70
2024/03/05 10:27:50;;;;;;;48.80;25.30;;;;;;;23.02;24.41;100207.02;108222;1253;59551;-69
2024/03/05 10:30:32;;;;;;;38.70;20.60;;;;;;;23.11;24.34;100202.30;108216;1254;72476;-69
2024/03/05 10:33:01;;;;;;;41.60;21.60;;;;;;;23.22;24.21;100200.42;108105;1253;69418;-69
2024/03/05 10:35:29;;;;;;;39.70;19.80;;;;;;;23.16;24.16;100196.51;108206;1253;73737;-69
2024/03/05 10:38:08;;;;;;;59.50;30.10;;;;;;;22.92;24.28;100190.73;107906;1255;60774;-70
2024/03/05 10:40:35;;;;;;;37.70;22.20;;;;;;;22.99;24.46;100190.95;108156;1256;59629;-68
2024/03/05 10:43:07;;;;;;;52.50;23.60;;;;;;;22.99;24.32;100190.12;108245;1253;73127;-70
2024/03/05 10:45:37;;;;;;;40.30;22.30;;;;;;;23.03;24.35;100189.90;108267;1253;69927;-69
2024/03/05 10:48:04;;;;;;;38.10;21.60;;;;;;;22.86;24.36;100189.29;108201;1256;72911;-70
2024/03/05 10:50:31;;;;;;;34.90;21.20;;;;;;;22.48;24.93;100187.50;108064;1253;59538;-69
2024/03/05 10:52:58;;;;;;;41.80;21.30;;;;;;;22.29;25.19;100180.93;107957;1253;61527;-68
2024/03/05 10:55:25;;;;;;;38.60;19.90;;;;;;;22.51;25.43;100177.77;108014;1254;71777;-68
2024/03/05 11:00:39;;;;;;;41.90;22.90;;;;;;;22.96;24.56;100175.09;108198;1253;72707;-69
2024/03/05 11:03:09;;;;;;;49.20;28.90;;;;;;;22.77;24.78;100173.39;108200;1253;60190;-70
2024/03/05 11:05:52;;;;;;;119.60;43.70;;;;;;;22.81;24.92;100167.81;108177;1254;60503;-69
2024/03/05 11:08:20;;;;;;;41.70;23.00;;;;;;;22.95;24.77;100171.82;108149;1256;74280;-70
2024/03/05 11:10:50;;;;;;;39.30;22.40;;;;;;;22.74;24.59;100168.48;108183;1254;70444;-70
2024/03/05 11:13:17;;;;;;;34.30;20.70;;;;;;;22.40;24.97;100166.23;108031;1259;72897;-69
2024/03/05 11:15:44;;;;;;;44.30;23.70;;;;;;;22.19;25.26;100162.11;107982;1253;60771;-69
2024/03/05 11:18:28;;;;;;;34.50;21.10;;;;;;;22.16;25.38;100163.39;108149;1254;60936;-69
2024/03/05 11:20:55;;;;;;;42.60;24.40;;;;;;;22.38;25.28;100162.83;108038;1254;71752;-70